sensor_id;sensor_type;location;lat;lon;timestamp;P1;durP1;ratioP1;P2;durP2;ratioP2
994;SDS011;486;48.726;8.964;2022-09-24T14:57:47;6.20;;;5.70;;
994;SDS011;486;48.726;8.964;2022-09-24T15:00:18;5.17;;;4.67;;
994;SDS011;486;48.726;8.964;2022-09-24T15:02:56;5.23;;;4.70;;
994;SDS011;486;48.726;8.964;2022-09-24T15:05:28;5.20;;;4.70;;
994;SDS011;486;48.726;8.964;2022-09-24T15:08:08;5.40;;;5.00;;
994;SDS011;486;48.726;8.964;2022-09-24T15:10:51;5.70;;;5.30;;
994;SDS011;486;48.726;8.964;2022-09-24T15:13:25;5.97;;;5.47;;
994;SDS011;486;48.726;8.964;2022-09-24T15:16:04;5.40;;;5.00;;
994;SDS011;486;48.726;8.964;2022-09-24T15:18:47;4.70;;;4.40;;
994;SDS011;486;48.726;8.964;2022-09-24T15:21:25;4.80;;;4.40;;
994;SDS011;486;48.726;8.964;2022-09-24T15:23:54;5.60;;;5.10;;
994;SDS011;486;48.726;8.964;2022-09-24T15:26:24;6.70;;;6.03;;
994;SDS011;486;48.726;8.964;2022-09-24T15:29:00;15.50;;;13.87;;
994;SDS011;486;48.726;8.964;2022-09-24T15:31:31;10.53;;;7.70;;
994;SDS011;486;48.726;8.964;2022-09-24T15:34:00;9.67;;;8.87;;
994;SDS011;486;48.726;8.964;2022-09-24T15:36:29;6.77;;;6.20;;
994;SDS011;486;48.726;8.964;2022-09-24T15:38:59;6.03;;;5.63;;
994;SDS011;486;48.726;8.964;2022-09-24T15:41:30;10.87;;;9.87;;
994;SDS011;486;48.726;8.964;2022-09-24T15:44:04;8.47;;;7.67;;
994;SDS011;486;48.726;8.964;2022-09-24T15:46:38;7.70;;;7.10;;
994;SDS011;486;48.726;8.964;2022-09-24T15:49:07;7.47;;;6.97;;
994;SDS011;486;48.726;8.964;2022-09-24T15:51:36;6.37;;;5.87;;
994;SDS011;486;48.726;8.964;2022-09-24T15:54:06;5.13;;;4.83;;
994;SDS011;486;48.726;8.964;2022-09-24T15:56:36;5.83;;;5.43;;
994;SDS011;486;48.726;8.964;2022-09-24T15:59:10;5.10;;;4.80;;
994;SDS011;486;48.726;8.964;2022-09-24T16:01:40;6.07;;;5.67;;
994;SDS011;486;48.726;8.964;2022-09-24T16:04:10;6.60;;;6.10;;
994;SDS011;486;48.726;8.964;2022-09-24T16:06:39;6.07;;;5.43;;
994;SDS011;486;48.726;8.964;2022-09-24T16:09:08;6.63;;;6.10;;
994;SDS011;486;48.726;8.964;2022-09-24T16:11:37;6.43;;;5.83;;
994;SDS011;486;48.726;8.964;2022-09-24T16:14:06;5.50;;;5.10;;
994;SDS011;486;48.726;8.964;2022-09-24T16:16:38;5.50;;;5.10;;
994;SDS011;486;48.726;8.964;2022-09-24T16:19:07;5.43;;;5.10;;
994;SDS011;486;48.726;8.964;2022-09-24T16:21:36;6.00;;;5.60;;
994;SDS011;486;48.726;8.964;2022-09-24T16:24:05;5.83;;;5.33;;
994;SDS011;486;48.726;8.964;2022-09-24T16:26:34;5.83;;;5.40;;
994;SDS011;486;48.726;8.964;2022-09-24T16:29:04;6.50;;;5.90;;
994;SDS011;486;48.726;8.964;2022-09-24T16:31:38;7.57;;;6.80;;
994;SDS011;486;48.726;8.964;2022-09-24T16:34:07;6.10;;;5.60;;
994;SDS011;486;48.726;8.964;2022-09-24T16:36:37;6.40;;;5.80;;
994;SDS011;486;48.726;8.964;2022-09-24T16:39:06;6.03;;;5.60;;
994;SDS011;486;48.726;8.964;2022-09-24T16:41:36;8.50;;;7.30;;
994;SDS011;486;48.726;8.964;2022-09-24T16:44:05;7.37;;;6.73;;
994;SDS011;486;48.726;8.964;2022-09-24T16:46:34;7.20;;;6.67;;
994;SDS011;486;48.726;8.964;2022-09-24T16:49:06;6.60;;;6.10;;
994;SDS011;486;48.726;8.964;2022-09-24T16:51:35;6.90;;;6.30;;
994;SDS011;486;48.726;8.964;2022-09-24T16:54:05;6.33;;;5.73;;
994;SDS011;486;48.726;8.964;2022-09-24T16:56:34;8.60;;;7.63;;
994;SDS011;486;48.726;8.964;2022-09-24T16:59:03;6.90;;;6.40;;
994;SDS011;486;48.726;8.964;2022-09-24T17:01:32;7.90;;;7.30;;
994;SDS011;486;48.726;8.964;2022-09-24T17:04:06;7.50;;;6.90;;
994;SDS011;486;48.726;8.964;2022-09-24T17:06:35;8.20;;;7.40;;
994;SDS011;486;48.726;8.964;2022-09-24T17:09:04;8.10;;;7.30;;
994;SDS011;486;48.726;8.964;2022-09-24T17:11:46;8.03;;;7.23;;
994;SDS011;486;48.726;8.964;2022-09-24T17:14:15;7.90;;;7.10;;
994;SDS011;486;48.726;8.964;2022-09-24T17:16:45;7.97;;;7.17;;
994;SDS011;486;48.726;8.964;2022-09-24T17:19:16;9.00;;;8.10;;
994;SDS011;486;48.726;8.964;2022-09-24T17:21:46;8.30;;;7.43;;
994;SDS011;486;48.726;8.964;2022-09-24T17:24:15;7.90;;;7.20;;
994;SDS011;486;48.726;8.964;2022-09-24T17:26:44;8.73;;;7.87;;
994;SDS011;486;48.726;8.964;2022-09-24T17:29:14;7.70;;;7.10;;
994;SDS011;486;48.726;8.964;2022-09-24T17:31:44;7.90;;;7.30;;
994;SDS011;486;48.726;8.964;2022-09-24T17:34:13;10.13;;;9.13;;
994;SDS011;486;48.726;8.964;2022-09-24T17:36:45;8.83;;;8.13;;
994;SDS011;486;48.726;8.964;2022-09-24T17:39:14;9.97;;;9.07;;
994;SDS011;486;48.726;8.964;2022-09-24T17:41:43;9.53;;;8.70;;
994;SDS011;486;48.726;8.964;2022-09-24T17:44:12;11.00;;;10.00;;
994;SDS011;486;48.726;8.964;2022-09-24T17:46:42;11.40;;;10.33;;
994;SDS011;486;48.726;8.964;2022-09-24T17:49:11;11.07;;;10.13;;
994;SDS011;486;48.726;8.964;2022-09-24T17:51:43;11.07;;;10.13;;
994;SDS011;486;48.726;8.964;2022-09-24T17:54:14;9.83;;;9.00;;
994;SDS011;486;48.726;8.964;2022-09-24T17:56:47;9.83;;;9.03;;
994;SDS011;486;48.726;8.964;2022-09-24T17:59:17;10.40;;;9.40;;
994;SDS011;486;48.726;8.964;2022-09-24T18:01:46;8.97;;;8.17;;
994;SDS011;486;48.726;8.964;2022-09-24T18:04:16;10.40;;;9.40;;
994;SDS011;486;48.726;8.964;2022-09-24T18:06:52;11.03;;;9.23;;
994;SDS011;486;48.726;8.964;2022-09-24T18:09:21;16.43;;;10.03;;
994;SDS011;486;48.726;8.964;2022-09-24T18:11:50;12.70;;;9.10;;
994;SDS011;486;48.726;8.964;2022-09-24T18:14:21;10.70;;;9.70;;
994;SDS011;486;48.726;8.964;2022-09-24T18:16:50;13.07;;;12.00;;
994;SDS011;486;48.726;8.964;2022-09-24T18:19:19;12.70;;;10.43;;
994;SDS011;486;48.726;8.964;2022-09-24T18:21:48;11.63;;;10.67;;
994;SDS011;486;48.726;8.964;2022-09-24T18:24:20;11.63;;;10.67;;
994;SDS011;486;48.726;8.964;2022-09-24T18:26:49;12.73;;;10.80;;
994;SDS011;486;48.726;8.964;2022-09-24T18:29:19;11.80;;;10.70;;
994;SDS011;486;48.726;8.964;2022-09-24T18:31:48;20.03;;;18.10;;
994;SDS011;486;48.726;8.964;2022-09-24T18:34:18;12.83;;;11.80;;
994;SDS011;486;48.726;8.964;2022-09-24T18:36:47;12.83;;;11.80;;
994;SDS011;486;48.726;8.964;2022-09-24T18:39:19;12.93;;;11.73;;
994;SDS011;486;48.726;8.964;2022-09-24T18:41:48;13.67;;;12.40;;
994;SDS011;486;48.726;8.964;2022-09-24T18:44:17;11.60;;;10.60;;
994;SDS011;486;48.726;8.964;2022-09-24T18:46:46;10.73;;;9.73;;
994;SDS011;486;48.726;8.964;2022-09-24T18:49:15;10.80;;;9.80;;
994;SDS011;486;48.726;8.964;2022-09-24T18:51:44;9.57;;;8.77;;
994;SDS011;486;48.726;8.964;2022-09-24T18:54:15;9.57;;;8.67;;
994;SDS011;486;48.726;8.964;2022-09-24T18:56:47;15.37;;;13.97;;
994;SDS011;486;48.726;8.964;2022-09-24T18:59:16;9.80;;;8.80;;
994;SDS011;486;48.726;8.964;2022-09-24T19:01:47;10.60;;;9.60;;
994;SDS011;486;48.726;8.964;2022-09-24T19:04:17;11.33;;;10.23;;
994;SDS011;486;48.726;8.964;2022-09-24T19:06:47;10.93;;;10.00;;
994;SDS011;486;48.726;8.964;2022-09-24T19:09:17;9.40;;;8.57;;
994;SDS011;486;48.726;8.964;2022-09-24T19:11:49;10.27;;;9.37;;
994;SDS011;486;48.726;8.964;2022-09-24T19:14:18;10.87;;;9.87;;
994;SDS011;486;48.726;8.964;2022-09-24T19:16:49;10.40;;;9.40;;
994;SDS011;486;48.726;8.964;2022-09-24T19:19:20;10.03;;;9.13;;
994;SDS011;486;48.726;8.964;2022-09-24T19:21:50;11.57;;;10.33;;
994;SDS011;486;48.726;8.964;2022-09-24T19:24:19;9.17;;;8.33;;
994;SDS011;486;48.726;8.964;2022-09-24T19:26:51;9.43;;;8.53;;
994;SDS011;486;48.726;8.964;2022-09-24T19:29:20;10.03;;;8.90;;
994;SDS011;486;48.726;8.964;2022-09-24T19:31:49;10.83;;;9.20;;
994;SDS011;486;48.726;8.964;2022-09-24T19:34:18;8.63;;;7.93;;
994;SDS011;486;48.726;8.964;2022-09-24T19:36:47;10.37;;;7.63;;
994;SDS011;486;48.726;8.964;2022-09-24T19:39:16;7.43;;;6.83;;
994;SDS011;486;48.726;8.964;2022-09-24T19:41:45;8.43;;;7.60;;
994;SDS011;486;48.726;8.964;2022-09-24T19:44:19;7.53;;;6.90;;
994;SDS011;486;48.726;8.964;2022-09-24T19:46:48;8.00;;;7.30;;
994;SDS011;486;48.726;8.964;2022-09-24T19:49:17;8.70;;;7.90;;
994;SDS011;486;48.726;8.964;2022-09-24T19:51:47;8.53;;;7.70;;
994;SDS011;486;48.726;8.964;2022-09-24T19:54:16;10.33;;;8.37;;
994;SDS011;486;48.726;8.964;2022-09-24T19:56:45;10.37;;;8.97;;
994;SDS011;486;48.726;8.964;2022-09-24T19:59:14;9.00;;;8.20;;
994;SDS011;486;48.726;8.964;2022-09-24T20:01:47;9.40;;;8.70;;
994;SDS011;486;48.726;8.964;2022-09-24T20:04:16;8.70;;;7.80;;
994;SDS011;486;48.726;8.964;2022-09-24T20:06:46;10.70;;;9.57;;
994;SDS011;486;48.726;8.964;2022-09-24T20:09:15;12.60;;;11.50;;
994;SDS011;486;48.726;8.964;2022-09-24T20:11:43;13.87;;;12.67;;
994;SDS011;486;48.726;8.964;2022-09-24T20:14:14;12.60;;;11.60;;
994;SDS011;486;48.726;8.964;2022-09-24T20:16:48;12.43;;;11.33;;
994;SDS011;486;48.726;8.964;2022-09-24T20:19:17;10.10;;;9.10;;
994;SDS011;486;48.726;8.964;2022-09-24T20:21:47;10.97;;;9.97;;
994;SDS011;486;48.726;8.964;2022-09-24T20:24:17;11.70;;;10.60;;
994;SDS011;486;48.726;8.964;2022-09-24T20:26:47;10.53;;;9.60;;
994;SDS011;486;48.726;8.964;2022-09-24T20:29:28;10.70;;;9.80;;
994;SDS011;486;48.726;8.964;2022-09-24T20:32:00;12.00;;;10.77;;
994;SDS011;486;48.726;8.964;2022-09-24T20:34:29;11.87;;;10.70;;
994;SDS011;486;48.726;8.964;2022-09-24T20:37:00;12.27;;;11.00;;
994;SDS011;486;48.726;8.964;2022-09-24T20:39:31;14.40;;;13.03;;
994;SDS011;486;48.726;8.964;2022-09-24T20:42:01;14.63;;;13.43;;
994;SDS011;486;48.726;8.964;2022-09-24T20:44:30;15.20;;;13.80;;
994;SDS011;486;48.726;8.964;2022-09-24T20:47:02;14.37;;;12.97;;
994;SDS011;486;48.726;8.964;2022-09-24T20:49:31;15.37;;;14.03;;
994;SDS011;486;48.726;8.964;2022-09-24T20:52:00;14.23;;;12.93;;
994;SDS011;486;48.726;8.964;2022-09-24T20:54:30;13.93;;;12.60;;
994;SDS011;486;48.726;8.964;2022-09-24T20:57:00;16.03;;;14.53;;
994;SDS011;486;48.726;8.964;2022-09-24T20:59:29;14.80;;;13.50;;
